Darstellungsparameter: Aktuell verwendete Einstellungen:
Skalierung der Graphiken ... ?
xyx+y,   Skalierungsfaktor:      Skalierung: Modus: x, Faktor: 1
Darstellungszeitraum ... ?
Vom - - bis: - -   Zeitraum: 18.02.2014 - 18.02.2014
Min/Max/Avg-Anzeige ... ?
Zeige MMA aktuell
Zeige MMA Monat
Zeige MMA alles
Zeige --A aktuell
Zeige --A Monat
Zeige --A alles
Keine MMA-Anzeige
MMA:
Keine MMA-Graphiken
MMA-Basis: 18.02.2014 - 18.02.2014
Quicknavigation für Darstellung... ?
Tage:      1T, 2T, 3T, 5T -1T -2T -3T -5T +1T +2T +3T +5T
Wochen: 1W, 2W, 3W -1W -2W -3W +1W +2W +3W
Monate: 1M, 3M, 6M -1M -3M -6M +1M +3M +6M
Jahre:    1J, 3J, 5J, 10J -1J -3J -5J -10J +1J +3J +5J +10J
Nutze für die Darstellung ... ?
Originaldaten oder Mittelwerte auf ...
Stundenbasis Tagesbasis Wochenbasis
Monatsbasis Jahresbasis      Datenbasis: Original-Daten
Darstellen als:
Statistik (Auto) Statistik J:M      Darstellung:
Zur Graphik,    zurück zur Übersicht aller Sensoren.
 
Tabellarische Datenbersicht: ?
 
Sensor: Nr:Datum:Temp:Feuchte:Taupunkt:
Aussen-T/F 1 18-02-2014 00:00:00 1.5 C 96 % 0.93 C
2 18-02-2014 00:05:00 1.5 C 96 % 0.93 C
3 18-02-2014 00:10:00 1.5 C 96 % 0.93 C
4 18-02-2014 00:15:00 1.4 C 96 % 0.83 C
5 18-02-2014 00:20:00 1.4 C 96 % 0.83 C
6 18-02-2014 00:25:00 1.3 C 96 % 0.73 C
7 18-02-2014 00:30:00 1.3 C 96 % 0.73 C
8 18-02-2014 00:35:00 1.2 C 96 % 0.63 C
9 18-02-2014 00:40:00 1.2 C 96 % 0.63 C
10 18-02-2014 00:45:00 1.1 C 96 % 0.54 C
11 18-02-2014 00:50:00 1.1 C 96 % 0.54 C
12 18-02-2014 00:55:00 1.1 C 96 % 0.54 C
13 18-02-2014 01:00:00 1.1 C 96 % 0.54 C
14 18-02-2014 01:05:00 1.1 C 96 % 0.54 C
15 18-02-2014 01:10:00 1 C 96 % 0.44 C
16 18-02-2014 01:15:00 1 C 96 % 0.44 C
17 18-02-2014 01:20:00 0.9 C 96 % 0.34 C
18 18-02-2014 01:25:00 0.9 C 96 % 0.34 C
19 18-02-2014 01:30:00 0.8 C 96 % 0.24 C
20 18-02-2014 01:35:00 0.8 C 96 % 0.24 C
21 18-02-2014 01:40:00 0.8 C 96 % 0.24 C
22 18-02-2014 01:45:00 0.8 C 96 % 0.24 C
23 18-02-2014 01:50:00 0.8 C 97 % 0.38 C
24 18-02-2014 01:55:00 0.8 C 96 % 0.24 C
25 18-02-2014 02:00:00 0.8 C 97 % 0.38 C
Sensor: Nr:Datum:Temp:Feuchte:Taupunkt:
Aussen-T/F 26 18-02-2014 02:05:00 0.8 C 97 % 0.38 C
27 18-02-2014 02:10:00 0.8 C 97 % 0.38 C
28 18-02-2014 02:15:00 0.8 C 97 % 0.38 C
29 18-02-2014 02:20:00 0.7 C 97 % 0.28 C
30 18-02-2014 02:25:00 0.7 C 97 % 0.28 C
31 18-02-2014 02:30:00 0.7 C 97 % 0.28 C
32 18-02-2014 02:35:00 0.7 C 97 % 0.28 C
33 18-02-2014 02:40:00 0.6 C 97 % 0.18 C
34 18-02-2014 02:45:00 0.5 C 96 % -0.06 C
35 18-02-2014 02:50:00 0.5 C 97 % 0.08 C
36 18-02-2014 02:55:00 0.5 C 97 % 0.08 C
37 18-02-2014 03:00:00 0.6 C 97 % 0.18 C
38 18-02-2014 03:05:00 0.6 C 97 % 0.18 C
39 18-02-2014 03:10:00 0.6 C 97 % 0.18 C
40 18-02-2014 03:15:00 0.6 C 97 % 0.18 C
41 18-02-2014 03:20:00 0.6 C 97 % 0.18 C
42 18-02-2014 03:25:00 0.6 C 97 % 0.18 C
43 18-02-2014 03:30:00 0.6 C 97 % 0.18 C
44 18-02-2014 03:35:00 0.5 C 97 % 0.08 C
45 18-02-2014 03:40:00 0.5 C 97 % 0.08 C
46 18-02-2014 03:45:00 0.4 C 97 % -0.02 C
47 18-02-2014 03:50:00 0.3 C 97 % -0.12 C
48 18-02-2014 03:55:00 0.3 C 97 % -0.12 C
49 18-02-2014 04:00:00 0.3 C 97 % -0.12 C
50 18-02-2014 04:05:00 0.3 C 97 % -0.12 C
Sensor: Nr:Datum:Temp:Feuchte:Taupunkt:
Aussen-T/F 51 18-02-2014 04:10:00 0.3 C 97 % -0.12 C
52 18-02-2014 04:15:00 0.4 C 97 % -0.02 C
53 18-02-2014 04:20:00 0.4 C 97 % -0.02 C
54 18-02-2014 04:25:00 0.4 C 97 % -0.02 C
55 18-02-2014 04:30:00 0.5 C 97 % 0.08 C
56 18-02-2014 04:35:00 0.5 C 97 % 0.08 C
57 18-02-2014 04:40:00 0.5 C 97 % 0.08 C
58 18-02-2014 04:45:00 0.5 C 97 % 0.08 C
59 18-02-2014 04:50:00 0.5 C 97 % 0.08 C
60 18-02-2014 04:55:00 0.5 C 97 % 0.08 C
61 18-02-2014 05:00:00 0.4 C 97 % -0.02 C
62 18-02-2014 05:05:00 0.4 C 97 % -0.02 C
63 18-02-2014 05:10:00 0.3 C 97 % -0.12 C
64 18-02-2014 05:15:00 0.3 C 97 % -0.12 C
65 18-02-2014 05:20:00 0.3 C 97 % -0.12 C
66 18-02-2014 05:25:00 0.3 C 97 % -0.12 C
67 18-02-2014 05:30:00 0.3 C 97 % -0.12 C
68 18-02-2014 05:35:00 0.3 C 97 % -0.12 C
69 18-02-2014 05:40:00 0.3 C 97 % -0.12 C
70 18-02-2014 05:45:00 0.3 C 97 % -0.12 C
71 18-02-2014 05:50:00 0.3 C 97 % -0.12 C
72 18-02-2014 05:55:00 0.3 C 97 % -0.12 C
73 18-02-2014 06:00:00 0.3 C 97 % -0.12 C
74 18-02-2014 06:05:00 0.3 C 97 % -0.12 C
75 18-02-2014 06:10:00 0.2 C 97 % -0.22 C
Sensor: Nr:Datum:Temp:Feuchte:Taupunkt:
Aussen-T/F 76 18-02-2014 06:15:00 0.2 C 97 % -0.22 C
77 18-02-2014 06:20:00 0.2 C 97 % -0.22 C
78 18-02-2014 06:25:00 0.2 C 97 % -0.22 C
79 18-02-2014 06:30:00 0.2 C 97 % -0.22 C
80 18-02-2014 06:35:00 0.2 C 97 % -0.22 C
81 18-02-2014 06:40:00 0.2 C 97 % -0.22 C
82 18-02-2014 06:45:00 0.2 C 97 % -0.22 C
83 18-02-2014 06:50:00 0.2 C 97 % -0.22 C
84 18-02-2014 06:55:00 0.2 C 97 % -0.22 C
85 18-02-2014 07:00:00 0.2 C 97 % -0.22 C
86 18-02-2014 07:05:00 0.2 C 97 % -0.22 C
87 18-02-2014 07:10:00 0.2 C 97 % -0.22 C
88 18-02-2014 07:15:00 0.2 C 97 % -0.22 C
89 18-02-2014 07:20:00 0.2 C 97 % -0.22 C
90 18-02-2014 07:25:00 0.1 C 97 % -0.32 C
91 18-02-2014 07:30:00 0.1 C 97 % -0.32 C
92 18-02-2014 07:35:00 0 C 97 % -0.42 C
93 18-02-2014 07:40:00 0 C 97 % -0.42 C
94 18-02-2014 07:45:00 0 C 97 % -0.42 C
95 18-02-2014 07:50:00 0 C 97 % -0.42 C
96 18-02-2014 07:55:00 0 C 97 % -0.42 C
97 18-02-2014 08:00:00 0.1 C 97 % -0.32 C
98 18-02-2014 08:05:00 0.1 C 97 % -0.32 C
99 18-02-2014 08:10:00 0.1 C 98 % -0.18 C
100 18-02-2014 08:15:00 0.1 C 98 % -0.18 C
Sensor: Nr:Datum:Temp:Feuchte:Taupunkt:
Aussen-T/F 101 18-02-2014 08:20:00 0.1 C 98 % -0.18 C
102 18-02-2014 08:25:00 0.1 C 98 % -0.18 C
103 18-02-2014 08:30:00 0.1 C 98 % -0.18 C
104 18-02-2014 08:35:00 0.1 C 97 % -0.32 C
105 18-02-2014 08:40:00 0.2 C 97 % -0.22 C
106 18-02-2014 08:45:00 0.2 C 97 % -0.22 C
107 18-02-2014 08:50:00 0.2 C 97 % -0.22 C
108 18-02-2014 08:55:00 0.2 C 97 % -0.22 C
109 18-02-2014 09:00:00 0.2 C 97 % -0.22 C
110 18-02-2014 09:05:00 0.2 C 97 % -0.22 C
111 18-02-2014 09:10:00 0.2 C 97 % -0.22 C
112 18-02-2014 09:15:00 0.2 C 97 % -0.22 C
113 18-02-2014 09:20:00 0.2 C 97 % -0.22 C
114 18-02-2014 09:25:00 0.3 C 98 % 0.02 C
115 18-02-2014 09:30:00 0.3 C 98 % 0.02 C
116 18-02-2014 09:35:00 0.3 C 98 % 0.02 C
117 18-02-2014 09:40:00 0.3 C 98 % 0.02 C
118 18-02-2014 09:45:00 0.4 C 98 % 0.12 C
119 18-02-2014 09:50:00 0.4 C 98 % 0.12 C
120 18-02-2014 09:55:00 0.4 C 98 % 0.12 C
121 18-02-2014 10:00:00 0.5 C 98 % 0.22 C
122 18-02-2014 10:05:00 0.5 C 98 % 0.22 C
123 18-02-2014 10:10:00 0.6 C 98 % 0.32 C
124 18-02-2014 10:15:00 0.7 C 98 % 0.42 C
125 18-02-2014 10:20:00 0.7 C 98 % 0.42 C
Sensor: Nr:Datum:Temp:Feuchte:Taupunkt:
Aussen-T/F 126 18-02-2014 10:25:00 0.8 C 98 % 0.52 C
127 18-02-2014 10:30:00 0.9 C 98 % 0.62 C
128 18-02-2014 10:35:00 1 C 98 % 0.72 C
129 18-02-2014 10:40:00 1.1 C 98 % 0.82 C
130 18-02-2014 10:45:00 1.3 C 98 % 1.02 C
131 18-02-2014 10:50:00 1.4 C 98 % 1.12 C
132 18-02-2014 10:55:00 1.6 C 98 % 1.32 C
133 18-02-2014 11:00:00 1.8 C 98 % 1.52 C
134 18-02-2014 11:05:00 1.9 C 98 % 1.62 C
135 18-02-2014 11:10:00 2.1 C 98 % 1.82 C
136 18-02-2014 11:15:00 2.2 C 98 % 1.92 C
137 18-02-2014 11:20:00 2.4 C 98 % 2.12 C
138 18-02-2014 11:25:00 2.5 C 98 % 2.22 C
139 18-02-2014 11:30:00 2.6 C 98 % 2.32 C
140 18-02-2014 11:35:00 2.7 C 98 % 2.42 C
141 18-02-2014 11:40:00 2.8 C 98 % 2.52 C
142 18-02-2014 11:45:00 2.8 C 98 % 2.52 C
143 18-02-2014 11:50:00 2.9 C 98 % 2.62 C
144 18-02-2014 11:55:00 2.9 C 98 % 2.62 C
145 18-02-2014 12:00:00 2.9 C 98 % 2.62 C
146 18-02-2014 12:05:00 3 C 98 % 2.72 C
147 18-02-2014 12:10:00 3.1 C 98 % 2.82 C
148 18-02-2014 12:15:00 3.2 C 98 % 2.92 C
149 18-02-2014 12:20:00 3.2 C 98 % 2.92 C
150 18-02-2014 12:25:00 3.3 C 98 % 3.01 C
Sensor: Nr:Datum:Temp:Feuchte:Taupunkt:
Aussen-T/F 151 18-02-2014 12:30:00 3.4 C 98 % 3.11 C
152 18-02-2014 12:35:00 3.6 C 98 % 3.31 C
153 18-02-2014 12:40:00 3.6 C 98 % 3.31 C
154 18-02-2014 12:45:00 3.6 C 98 % 3.31 C
155 18-02-2014 12:50:00 3.6 C 97 % 3.17 C
156 18-02-2014 12:55:00 3.7 C 97 % 3.27 C
157 18-02-2014 13:00:00 3.7 C 97 % 3.27 C
158 18-02-2014 13:05:00 4 C 97 % 3.57 C
159 18-02-2014 13:10:00 4.3 C 97 % 3.87 C
160 18-02-2014 13:15:00 4.4 C 96 % 3.82 C
161 18-02-2014 13:20:00 4.6 C 95 % 3.87 C
162 18-02-2014 13:25:00 4.7 C 95 % 3.97 C
163 18-02-2014 13:30:00 4.9 C 94 % 4.02 C
164 18-02-2014 13:35:00 5.1 C 93 % 4.06 C
165 18-02-2014 13:40:00 5.2 C 93 % 4.16 C
166 18-02-2014 13:45:00 5.3 C 93 % 4.26 C
167 18-02-2014 13:50:00 5.6 C 93 % 4.56 C
168 18-02-2014 13:55:00 5.7 C 92 % 4.5 C
169 18-02-2014 14:00:00 5.9 C 91 % 4.55 C
170 18-02-2014 14:05:00 6 C 90 % 4.49 C
171 18-02-2014 14:10:00 6.2 C 89 % 4.53 C
172 18-02-2014 14:15:00 6.3 C 90 % 4.78 C
173 18-02-2014 14:20:00 6.4 C 89 % 4.72 C
174 18-02-2014 14:25:00 6.7 C 88 % 4.86 C
175 18-02-2014 14:30:00 6.8 C 87 % 4.79 C
Sensor: Nr:Datum:Temp:Feuchte:Taupunkt:
Aussen-T/F 176 18-02-2014 14:35:00 6.9 C 88 % 5.05 C
177 18-02-2014 14:40:00 7 C 87 % 4.99 C
178 18-02-2014 14:45:00 7.1 C 86 % 4.92 C
179 18-02-2014 14:50:00 7.1 C 86 % 4.92 C
180 18-02-2014 14:55:00 7.3 C 86 % 5.12 C
181 18-02-2014 15:00:00 7.4 C 85 % 5.05 C
182 18-02-2014 15:05:00 7.6 C 85 % 5.24 C
183 18-02-2014 15:10:00 7.7 C 85 % 5.34 C
184 18-02-2014 15:15:00 7.8 C 84 % 5.27 C
185 18-02-2014 15:20:00 7.8 C 84 % 5.27 C
186 18-02-2014 15:25:00 7.8 C 84 % 5.27 C
187 18-02-2014 15:30:00 7.9 C 84 % 5.37 C
188 18-02-2014 15:35:00 7.9 C 83 % 5.2 C
189 18-02-2014 15:40:00 7.9 C 83 % 5.2 C
190 18-02-2014 15:45:00 7.9 C 83 % 5.2 C
191 18-02-2014 15:50:00 7.9 C 84 % 5.37 C
192 18-02-2014 15:55:00 7.9 C 84 % 5.37 C
193 18-02-2014 16:00:00 7.9 C 85 % 5.54 C
194 18-02-2014 16:05:00 8 C 86 % 5.81 C
195 18-02-2014 16:10:00 7.9 C 86 % 5.71 C
196 18-02-2014 16:15:00 7.9 C 86 % 5.71 C
197 18-02-2014 16:20:00 7.9 C 87 % 5.87 C
198 18-02-2014 16:25:00 7.9 C 88 % 6.04 C
199 18-02-2014 16:30:00 7.9 C 88 % 6.04 C
200 18-02-2014 16:35:00 7.9 C 87 % 5.87 C
Sensor: Nr:Datum:Temp:Feuchte:Taupunkt:
Aussen-T/F 201 18-02-2014 16:40:00 7.9 C 87 % 5.87 C
202 18-02-2014 16:45:00 7.8 C 87 % 5.78 C
203 18-02-2014 16:50:00 7.7 C 87 % 5.68 C
204 18-02-2014 16:55:00 7.6 C 88 % 5.74 C
205 18-02-2014 17:00:00 7.5 C 89 % 5.81 C
206 18-02-2014 17:05:00 7.3 C 89 % 5.61 C
207 18-02-2014 17:10:00 7.2 C 90 % 5.67 C
208 18-02-2014 17:15:00 7.2 C 90 % 5.67 C
209 18-02-2014 17:20:00 7.1 C 91 % 5.73 C
210 18-02-2014 17:25:00 6.9 C 91 % 5.54 C
211 18-02-2014 17:30:00 6.8 C 91 % 5.44 C
212 18-02-2014 17:35:00 6.7 C 91 % 5.34 C
213 18-02-2014 17:40:00 6.7 C 91 % 5.34 C
214 18-02-2014 17:45:00 6.7 C 91 % 5.34 C
215 18-02-2014 17:50:00 6.7 C 91 % 5.34 C
216 18-02-2014 17:55:00 6.7 C 91 % 5.34 C
217 18-02-2014 18:00:00 6.6 C 91 % 5.24 C
218 18-02-2014 18:05:00 6.6 C 91 % 5.24 C
219 18-02-2014 18:10:00 6.6 C 91 % 5.24 C
220 18-02-2014 18:15:00 6.6 C 91 % 5.24 C
221 18-02-2014 18:20:00 6.6 C 91 % 5.24 C
222 18-02-2014 18:25:00 6.5 C 90 % 4.98 C
223 18-02-2014 18:30:00 6.6 C 91 % 5.24 C
224 18-02-2014 18:35:00 6.5 C 90 % 4.98 C
225 18-02-2014 18:40:00 6.5 C 90 % 4.98 C
Sensor: Nr:Datum:Temp:Feuchte:Taupunkt:
Aussen-T/F 226 18-02-2014 18:45:00 6.5 C 91 % 5.14 C
227 18-02-2014 18:50:00 6.5 C 91 % 5.14 C
228 18-02-2014 18:55:00 6.4 C 91 % 5.04 C
229 18-02-2014 19:00:00 6.4 C 90 % 4.88 C
230 18-02-2014 19:05:00 6.3 C 90 % 4.78 C
231 18-02-2014 19:10:00 6.3 C 90 % 4.78 C
232 18-02-2014 19:15:00 6.2 C 90 % 4.69 C
233 18-02-2014 19:20:00 6.2 C 91 % 4.84 C
234 18-02-2014 19:25:00 6.1 C 91 % 4.74 C
235 18-02-2014 19:30:00 6 C 92 % 4.8 C
236 18-02-2014 19:35:00 6 C 92 % 4.8 C
237 18-02-2014 19:40:00 5.9 C 92 % 4.7 C
238 18-02-2014 19:45:00 5.9 C 92 % 4.7 C
239 18-02-2014 19:50:00 5.8 C 92 % 4.6 C
240 18-02-2014 19:55:00 5.8 C 92 % 4.6 C
241 18-02-2014 20:00:00 5.8 C 92 % 4.6 C
242 18-02-2014 20:05:00 5.8 C 92 % 4.6 C
243 18-02-2014 20:10:00 5.8 C 92 % 4.6 C
244 18-02-2014 20:15:00 5.8 C 92 % 4.6 C
245 18-02-2014 20:20:00 5.8 C 92 % 4.6 C
246 18-02-2014 20:25:00 5.8 C 92 % 4.6 C
247 18-02-2014 20:30:00 5.8 C 92 % 4.6 C
248 18-02-2014 20:35:00 5.8 C 92 % 4.6 C
249 18-02-2014 20:40:00 5.7 C 92 % 4.5 C
250 18-02-2014 20:45:00 5.7 C 93 % 4.66 C
Sensor: Nr:Datum:Temp:Feuchte:Taupunkt:
Aussen-T/F 251 18-02-2014 20:50:00 5.7 C 92 % 4.5 C
252 18-02-2014 20:55:00 5.7 C 92 % 4.5 C
253 18-02-2014 21:00:00 5.7 C 92 % 4.5 C
254 18-02-2014 21:05:00 5.7 C 93 % 4.66 C
255 18-02-2014 21:10:00 5.6 C 93 % 4.56 C
256 18-02-2014 21:15:00 5.6 C 93 % 4.56 C
257 18-02-2014 21:20:00 5.6 C 93 % 4.56 C
258 18-02-2014 21:25:00 5.6 C 93 % 4.56 C
259 18-02-2014 21:30:00 5.7 C 93 % 4.66 C
260 18-02-2014 21:35:00 5.7 C 93 % 4.66 C
261 18-02-2014 21:40:00 5.7 C 93 % 4.66 C
262 18-02-2014 21:45:00 5.7 C 93 % 4.66 C
263 18-02-2014 21:50:00 5.6 C 93 % 4.56 C
264 18-02-2014 21:55:00 5.6 C 92 % 4.41 C
265 18-02-2014 22:00:00 5.7 C 93 % 4.66 C
266 18-02-2014 22:05:00 5.7 C 93 % 4.66 C
267 18-02-2014 22:10:00 5.7 C 93 % 4.66 C
268 18-02-2014 22:15:00 5.7 C 93 % 4.66 C
269 18-02-2014 22:20:00 5.7 C 93 % 4.66 C
270 18-02-2014 22:25:00 5.8 C 92 % 4.6 C
271 18-02-2014 22:30:00 5.8 C 92 % 4.6 C
272 18-02-2014 22:35:00 5.7 C 92 % 4.5 C
273 18-02-2014 22:40:00 5.7 C 92 % 4.5 C
274 18-02-2014 22:45:00 5.8 C 92 % 4.6 C
275 18-02-2014 22:50:00 5.9 C 92 % 4.7 C
Sensor: Nr:Datum:Temp:Feuchte:Taupunkt:
Aussen-T/F 276 18-02-2014 22:55:00 5.9 C 92 % 4.7 C
277 18-02-2014 23:00:00 5.9 C 92 % 4.7 C
278 18-02-2014 23:05:00 5.9 C 92 % 4.7 C
279 18-02-2014 23:10:00 5.9 C 92 % 4.7 C
280 18-02-2014 23:15:00 5.9 C 92 % 4.7 C
281 18-02-2014 23:20:00 5.9 C 91 % 4.55 C
282 18-02-2014 23:25:00 5.9 C 91 % 4.55 C
283 18-02-2014 23:30:00 5.9 C 91 % 4.55 C
284 18-02-2014 23:35:00 5.9 C 91 % 4.55 C
285 18-02-2014 23:40:00 5.8 C 91 % 4.45 C
286 18-02-2014 23:45:00 5.8 C 91 % 4.45 C
287 18-02-2014 23:50:00 5.7 C 91 % 4.35 C
288 18-02-2014 23:55:00 5.7 C 91 % 4.35 C

Legende:
   Min
   Max


Maximal/Minimal-Werte vom 18.02.2014 - 18.02.2014

Sensor Min Max Avg
Temp
(Aussen-T/F)
0 °C
18-02-2014  07:35:00
8 °C
18-02-2014  16:05:00
3.39 °C
Feuchte
(Aussen-T/F)
83 %
18-02-2014  15:35:00
98 %
18-02-2014  08:10:00
94.06 %
Taupunkt
(Aussen-T/F)
-0.42 C
18-02-2014  07:35:00
6.04 C
18-02-2014  16:25:00
2.49 C

Die Daten stammen von einer Davis Vantage Pro 2 Wetter-Station und werden unter Linux mit der Software wview2wettercgi und aufbereitet. Alle Angaben erfolgen ohne Gewähr für ihre Vollständigkeit oder Richtigkeit.
Kontakt: Rainer Krienke krienke@uni-koblenz.de . Meine Webseiten an der Uni Koblenz oder privat.
Version: $Revision: 0.78 $